Time;durP1;ratioP1;P1;durP2;ratioP2;P2;SDS_P1;SDS_P2;PMS_P1;PMS_P2;Temp;Humidity;BMP_temperature;BMP_pressure;BME280_temperature;BME280_humidity;BME280_pressure;Samples;Min_cycle;Max_cycle;Signal;HPM_P1;HPM_P2
2021/09/04 00:00:39;;;;;;;11.13;8.25;;;;;;;14.22;90.78;101308.72;5000380;28;20048;-84
2021/09/04 00:03:06;;;;;;;14.82;9.80;;;;;;;14.22;90.37;101303.44;4998031;28;20132;-82
2021/09/04 00:05:32;;;;;;;17.23;8.75;;;;;;;14.19;90.51;101309.63;4986169;28;20127;-83
2021/09/04 00:07:59;;;;;;;18.13;9.27;;;;;;;14.16;90.71;101314.94;5002100;28;20146;-82
2021/09/04 00:10:26;;;;;;;20.27;8.80;;;;;;;14.15;90.92;101310.56;4998585;28;20049;-82
2021/09/04 00:12:53;;;;;;;12.05;8.75;;;;;;;14.18;90.54;101307.03;4986047;28;20049;-81
2021/09/04 00:15:19;;;;;;;13.88;8.85;;;;;;;14.18;90.21;101307.03;5000200;28;20147;-84
2021/09/04 00:17:46;;;;;;;17.48;8.93;;;;;;;14.16;90.38;101307.06;4990963;28;20049;-81
2021/09/04 00:20:18;;;;;;;18.00;9.30;;;;;;;14.17;90.32;101300.00;4986052;28;20154;-88
2021/09/04 00:22:45;;;;;;;14.82;8.70;;;;;;;14.18;90.09;101307.91;4999884;28;20076;-81
2021/09/04 00:25:12;;;;;;;15.13;8.55;;;;;;;14.16;89.67;101309.69;4985769;28;20114;-82
2021/09/04 00:27:39;;;;;;;11.55;7.97;;;;;;;14.17;89.70;101302.66;5000150;28;20558;-85
2021/09/04 00:30:06;;;;;;;22.63;10.52;;;;;;;14.15;89.44;101305.31;4983581;28;20077;-81
2021/09/04 00:32:33;;;;;;;12.70;7.57;;;;;;;14.14;89.13;101308.81;5000202;28;20053;-81
2021/09/04 00:34:59;;;;;;;12.15;7.80;;;;;;;14.16;88.91;101299.16;5016439;28;20068;-81
2021/09/04 00:37:26;;;;;;;14.15;8.80;;;;;;;14.18;88.91;101300.03;5000659;28;20056;-81
2021/09/04 00:39:53;;;;;;;13.65;8.32;;;;;;;14.18;88.76;101307.03;5000106;28;20060;-81
2021/09/04 00:42:21;;;;;;;16.67;8.48;;;;;;;14.19;88.65;101306.16;4999473;28;20053;-84
2021/09/04 00:44:48;;;;;;;14.65;7.93;;;;;;;14.19;88.60;101309.63;5009224;28;20060;-85
2021/09/04 00:47:15;;;;;;;12.13;8.25;;;;;;;14.21;88.34;101304.38;5019067;28;20057;-81
2021/09/04 00:49:42;;;;;;;11.95;7.75;;;;;;;14.20;88.55;101305.25;5001449;28;20639;-82
2021/09/04 00:52:10;;;;;;;15.75;7.97;;;;;;;14.20;88.20;101303.47;4998687;28;20049;-84
2021/09/04 00:54:37;;;;;;;13.43;8.57;;;;;;;14.18;87.96;101312.28;5002430;28;20140;-81
2021/09/04 00:57:04;;;;;;;17.13;8.52;;;;;;;14.10;88.30;101301.00;5001596;28;20692;-85
2021/09/04 00:59:31;;;;;;;14.85;7.78;;;;;;;14.09;88.30;101310.63;5001625;28;20053;-84
2021/09/04 01:01:58;;;;;;;15.77;8.38;;;;;;;14.12;88.03;101304.47;4985889;28;20045;-84
2021/09/04 01:04:24;;;;;;;12.82;7.57;;;;;;;14.15;88.08;101297.41;4983677;28;20140;-83
2021/09/04 01:06:52;;;;;;;14.52;8.25;;;;;;;14.19;87.83;101295.59;5003000;28;20505;-82
2021/09/04 01:09:19;;;;;;;12.30;7.18;;;;;;;14.22;87.51;101283.28;4983080;28;20053;-80
2021/09/04 01:11:46;;;;;;;16.67;7.53;;;;;;;14.21;87.23;101292.06;5000294;28;20095;-83
2021/09/04 01:14:13;;;;;;;14.07;7.35;;;;;;;14.19;87.41;101278.03;4986619;28;20048;-81
2021/09/04 01:16:42;;;;;;;16.63;7.78;;;;;;;14.17;87.47;101286.84;4981979;28;20056;-82
2021/09/04 01:19:12;;;;;;;10.43;7.05;;;;;;;14.16;87.46;101287.75;5001234;28;20861;-82
2021/09/04 01:21:42;;;;;;;14.13;7.10;;;;;;;14.17;87.36;101286.84;4999943;28;20041;-83
2021/09/04 01:24:09;;;;;;;18.30;7.78;;;;;;;14.16;87.56;101287.75;5000779;28;20049;-82
2021/09/04 01:26:37;;;;;;;16.80;7.75;;;;;;;14.06;87.87;101298.38;4997206;28;20058;-82
2021/09/04 01:29:04;;;;;;;10.90;7.03;;;;;;;14.07;88.02;101300.13;5017236;28;20054;-82
2021/09/04 01:31:31;;;;;;;12.25;7.75;;;;;;;14.11;87.84;101293.06;4984771;28;20052;-83
2021/09/04 01:33:58;;;;;;;17.92;7.85;;;;;;;14.12;87.61;101289.56;5011962;28;20156;-83
2021/09/04 01:36:33;;;;;;;15.00;7.38;;;;;;;14.11;87.54;101292.22;5001562;28;20045;-86
2021/09/04 01:39:01;;;;;;;13.15;7.22;;;;;;;14.09;87.46;101291.34;4988434;28;21970;-87
2021/09/04 01:41:31;;;;;;;15.07;7.10;;;;;;;14.04;87.25;101294.03;4987206;28;20485;-85
2021/09/04 01:43:58;;;;;;;14.32;6.95;;;;;;;14.01;87.62;101294.94;5034429;28;20168;-85
2021/09/04 01:46:26;;;;;;;10.88;6.90;;;;;;;14.02;87.77;101298.47;4981821;28;20045;-81
2021/09/04 01:48:53;;;;;;;16.77;7.07;;;;;;;14.02;87.46;101296.69;5002326;28;20064;-81
2021/09/04 01:51:20;;;;;;;11.43;6.93;;;;;;;13.98;87.96;101295.00;5000654;28;20092;-84
2021/09/04 01:53:46;;;;;;;11.30;6.50;;;;;;;13.99;87.76;101298.53;4984989;28;20108;-84
2021/09/04 01:56:13;;;;;;;13.40;8.55;;;;;;;13.99;87.71;101296.75;5011274;28;20045;-83
2021/09/04 01:58:40;;;;;;;13.52;8.18;;;;;;;13.98;88.07;101295.00;5000956;28;20060;-82
2021/09/04 02:01:07;;;;;;;14.10;7.75;;;;;;;13.95;87.75;101287.16;5003743;28;20049;-84
2021/09/04 02:03:35;;;;;;;12.57;8.10;;;;;;;13.91;87.72;101288.09;4998067;28;20095;-81
2021/09/04 02:06:04;;;;;;;14.82;7.93;;;;;;;13.88;87.86;101296.88;5020349;28;20046;-82
2021/09/04 02:08:32;;;;;;;15.73;7.75;;;;;;;13.87;88.05;101294.25;5001983;28;20135;-84
2021/09/04 02:11:00;;;;;;;20.05;7.40;;;;;;;13.86;88.24;101280.22;4983566;28;20038;-82
2021/09/04 02:13:28;;;;;;;16.08;6.70;;;;;;;13.84;88.12;101282.00;5002556;28;20045;-83
2021/09/04 02:15:58;;;;;;;14.52;7.28;;;;;;;13.83;88.01;101280.28;5017791;28;20061;-83
2021/09/04 02:18:29;;;;;;;10.80;6.30;;;;;;;13.80;87.90;101285.56;5015774;28;20134;-85
2021/09/04 02:20:56;;;;;;;9.45;5.72;;;;;;;13.80;87.57;101282.94;5005776;28;20069;-86
2021/09/04 02:23:23;;;;;;;13.50;7.38;;;;;;;13.82;87.61;101285.53;4971960;28;20501;-82
2021/09/04 02:25:53;;;;;;;13.38;7.90;;;;;;;13.80;87.76;101292.59;5007196;28;20128;-83
2021/09/04 02:28:20;;;;;;;13.55;6.07;;;;;;;13.78;87.22;101291.72;5000650;28;20163;-82
2021/09/04 02:30:48;;;;;;;12.38;6.45;;;;;;;13.76;87.37;101283.88;4990656;28;20049;-82
2021/09/04 02:33:15;;;;;;;13.75;6.97;;;;;;;13.78;87.53;101299.63;4971388;28;20045;-82
2021/09/04 02:35:41;;;;;;;9.38;5.65;;;;;;;13.78;87.56;101290.00;4999685;28;20061;-85
2021/09/04 02:38:10;;;;;;;10.60;5.63;;;;;;;13.83;87.18;101295.19;4984007;28;20049;-86
2021/09/04 02:40:37;;;;;;;13.48;6.32;;;;;;;13.85;87.00;101293.41;5000001;28;20049;-81
2021/09/04 02:43:04;;;;;;;11.43;5.13;;;;;;;13.85;87.07;101289.00;4989618;28;20045;-82
2021/09/04 02:45:31;;;;;;;9.32;5.53;;;;;;;13.89;86.56;101295.13;4988190;28;20076;-85
2021/09/04 02:47:58;;;;;;;11.65;7.30;;;;;;;13.85;86.00;101290.78;4983756;28;20060;-85
2021/09/04 02:50:25;;;;;;;14.05;7.22;;;;;;;13.80;85.87;101296.09;4983188;28;20104;-83
2021/09/04 02:52:51;;;;;;;13.23;7.63;;;;;;;13.75;85.69;101292.63;4997477;28;20073;-86
2021/09/04 02:55:18;;;;;;;13.63;7.53;;;;;;;13.77;85.19;101301.41;4985520;28;20100;-83
2021/09/04 02:57:45;;;;;;;16.70;9.43;;;;;;;13.76;85.13;101294.38;5001062;28;20052;-83
2021/09/04 03:00:12;;;;;;;13.63;7.72;;;;;;;13.78;84.87;101295.25;4987186;28;20340;-81
2021/09/04 03:02:39;;;;;;;14.02;7.57;;;;;;;13.79;84.77;101299.59;5002420;28;20095;-81
2021/09/04 03:05:06;;;;;;;10.23;7.03;;;;;;;13.80;84.90;101289.97;4984767;28;20056;-85
2021/09/04 03:07:32;;;;;;;15.52;8.70;;;;;;;13.81;84.47;101287.31;5001983;28;20049;-82
2021/09/04 03:09:59;;;;;;;10.80;7.18;;;;;;;13.81;84.67;101289.09;5001109;28;20126;-84
2021/09/04 03:12:25;;;;;;;11.65;7.30;;;;;;;13.79;84.33;101293.47;5019843;28;20037;-83
2021/09/04 03:14:52;;;;;;;16.13;8.77;;;;;;;13.77;84.47;101285.63;5003712;28;20053;-84
2021/09/04 03:17:18;;;;;;;12.02;7.80;;;;;;;13.78;84.63;101284.72;4985020;28;20570;-83
2021/09/04 03:19:45;;;;;;;9.95;6.82;;;;;;;13.81;84.93;101284.69;4986039;28;20053;-85
2021/09/04 03:22:11;;;;;;;13.50;6.28;;;;;;;13.83;85.09;101282.91;4998295;28;20592;-82
2021/09/04 03:24:39;;;;;;;12.18;6.88;;;;;;;13.85;84.61;101290.78;5000776;28;20126;-87
2021/09/04 03:27:06;;;;;;;9.52;6.45;;;;;;;13.84;84.63;101289.03;5001883;28;20045;-83
2021/09/04 03:29:33;;;;;;;8.45;6.10;;;;;;;13.83;84.34;101290.81;4983087;28;20057;-83
2021/09/04 03:31:59;;;;;;;14.93;7.10;;;;;;;13.81;84.50;101297.84;4989997;28;20038;-82
2021/09/04 03:34:26;;;;;;;9.65;7.13;;;;;;;13.81;84.66;101296.97;5002869;28;20063;-85
2021/09/04 03:36:52;;;;;;;16.65;7.22;;;;;;;13.81;84.36;101292.56;5003825;28;20561;-82
2021/09/04 03:39:22;;;;;;;9.48;6.35;;;;;;;13.81;83.78;101295.22;4996875;28;20382;-86
2021/09/04 03:41:48;;;;;;;15.80;7.97;;;;;;;13.80;83.48;101289.97;5002586;28;20050;-84
2021/09/04 03:44:15;;;;;;;11.23;7.45;;;;;;;13.77;83.59;101279.50;5007464;28;20076;-82
2021/09/04 03:46:41;;;;;;;10.68;6.97;;;;;;;13.74;83.40;101280.41;4999588;28;20049;-82
2021/09/04 03:49:08;;;;;;;11.88;7.53;;;;;;;13.75;83.36;101278.63;5000705;28;20048;-81
2021/09/04 03:51:34;;;;;;;13.38;6.40;;;;;;;13.76;83.27;101275.97;5018475;28;20570;-83
2021/09/04 03:54:01;;;;;;;11.98;6.80;;;;;;;13.78;83.80;101271.56;5002753;28;20144;-83
2021/09/04 03:56:27;;;;;;;8.50;5.25;;;;;;;13.78;83.66;101274.22;5002660;28;20049;-84
2021/09/04 03:58:54;;;;;;;10.23;6.38;;;;;;;13.77;83.46;101275.09;5001154;28;20045;-82
2021/09/04 04:01:21;;;;;;;10.45;5.47;;;;;;;13.78;83.79;101283.84;4987450;28;20045;-83
2021/09/04 04:03:49;;;;;;;11.18;5.57;;;;;;;13.70;84.10;101274.28;4984257;28;20064;-86
2021/09/04 04:06:16;;;;;;;12.85;5.75;;;;;;;13.67;83.87;101271.69;4986601;28;20415;-85
2021/09/04 04:08:43;;;;;;;9.25;5.45;;;;;;;13.65;84.18;101270.84;5002310;28;20760;-82
2021/09/04 04:11:12;;;;;;;9.80;4.78;;;;;;;13.65;84.32;101280.47;5013867;28;20049;-82
2021/09/04 04:13:40;;;;;;;8.25;5.18;;;;;;;13.63;84.46;101284.91;5017806;28;20077;-82
2021/09/04 04:16:07;;;;;;;9.65;4.75;;;;;;;13.64;84.55;101277.00;5001593;28;20128;-81
2021/09/04 04:18:34;;;;;;;8.20;4.32;;;;;;;13.63;84.77;101283.13;4984205;28;21104;-82
2021/09/04 04:21:01;;;;;;;6.82;4.35;;;;;;;13.67;84.71;101283.97;4984902;28;20045;-82
2021/09/04 04:23:28;;;;;;;14.20;4.95;;;;;;;13.67;84.31;101283.97;5002100;28;20045;-81
2021/09/04 04:25:55;;;;;;;10.52;4.80;;;;;;;13.69;84.20;101280.44;5000673;28;21284;-82
2021/09/04 04:28:22;;;;;;;10.23;5.10;;;;;;;13.72;84.17;101279.53;4984624;28;20053;-84
2021/09/04 04:30:48;;;;;;;7.97;4.95;;;;;;;13.68;83.68;101278.69;5001462;28;20075;-86
2021/09/04 04:33:15;;;;;;;12.88;5.18;;;;;;;13.64;83.85;101279.63;5005019;28;20037;-82
2021/09/04 04:35:43;;;;;;;8.95;5.82;;;;;;;13.60;84.00;101287.56;4984072;28;20626;-82
2021/09/04 04:38:10;;;;;;;9.82;5.32;;;;;;;13.56;83.90;101282.34;5018260;28;20050;-83
2021/09/04 04:40:38;;;;;;;9.60;5.25;;;;;;;13.56;83.83;101284.09;5000890;28;20140;-82
2021/09/04 04:43:05;;;;;;;12.60;5.28;;;;;;;13.56;83.61;101282.34;4986406;28;20049;-81
2021/09/04 04:45:31;;;;;;;6.93;5.30;;;;;;;13.59;83.61;101276.16;5001888;28;20049;-86
2021/09/04 04:47:58;;;;;;;9.30;5.22;;;;;;;13.62;83.24;101281.38;4982635;28;20724;-82
2021/09/04 04:50:27;;;;;;;8.30;4.93;;;;;;;13.64;82.90;101284.88;4982867;28;20052;-82
2021/09/04 04:52:54;;;;;;;8.35;4.97;;;;;;;13.65;82.85;101289.25;4988059;28;20047;-81
2021/09/04 04:55:20;;;;;;;10.25;4.93;;;;;;;13.64;82.59;101292.78;5003819;28;20063;-85
2021/09/04 04:57:47;;;;;;;10.45;4.93;;;;;;;13.63;82.37;101292.81;4998819;28;20796;-85
2021/09/04 05:00:14;;;;;;;7.30;4.70;;;;;;;13.63;82.29;101292.81;4982921;28;20053;-86
2021/09/04 05:02:40;;;;;;;12.23;5.05;;;;;;;13.63;82.45;101292.81;4999206;28;20064;-83
2021/09/04 05:05:08;;;;;;;9.32;5.28;;;;;;;13.63;81.64;101295.44;4986082;28;20059;-83
2021/09/04 05:07:34;;;;;;;7.13;4.13;;;;;;;13.63;81.98;101290.16;5019306;28;20050;-84
2021/09/04 05:10:03;;;;;;;7.75;4.47;;;;;;;13.63;81.50;101298.91;4989404;28;20045;-82
2021/09/04 05:12:29;;;;;;;8.02;5.60;;;;;;;13.63;81.21;101296.28;4984802;28;20045;-81
2021/09/04 05:14:56;;;;;;;6.35;4.53;;;;;;;13.62;81.00;101305.06;5001655;28;20472;-82
2021/09/04 05:17:22;;;;;;;12.93;5.68;;;;;;;13.60;80.95;101298.06;4981619;28;20167;-88
2021/09/04 05:19:49;;;;;;;5.95;4.25;;;;;;;13.64;81.31;101302.44;5016260;28;20132;-82
2021/09/04 05:22:15;;;;;;;10.40;5.10;;;;;;;13.69;80.81;101304.13;4983744;28;20033;-81
2021/09/04 05:24:42;;;;;;;13.50;6.35;;;;;;;13.72;80.47;101308.47;5001895;28;20053;-82
2021/09/04 05:27:33;;;;;;;11.68;6.00;;;;;;;13.69;79.95;101301.50;5102689;27;20542;-84
2021/09/04 05:29:59;;;;;;;9.77;5.75;;;;;;;13.68;79.96;101306.78;5050735;28;20059;-84
2021/09/04 05:32:26;;;;;;;9.07;4.60;;;;;;;13.66;79.89;101301.53;5014803;28;20049;-83
2021/09/04 05:34:53;;;;;;;8.07;4.97;;;;;;;13.68;79.73;101298.88;5026911;28;20057;-84
2021/09/04 05:37:20;;;;;;;5.97;4.57;;;;;;;13.71;79.63;101299.72;5027171;28;20137;-81
2021/09/04 05:39:48;;;;;;;8.05;4.93;;;;;;;13.76;79.38;101304.06;5013148;28;20049;-80
2021/09/04 05:42:14;;;;;;;11.32;4.75;;;;;;;13.78;79.37;101305.78;5013186;28;20080;-81
2021/09/04 05:44:41;;;;;;;8.55;4.18;;;;;;;13.78;78.77;101303.16;5030132;28;20100;-83
2021/09/04 05:47:08;;;;;;;6.70;3.80;;;;;;;13.77;79.21;101311.94;5024411;28;21026;-83
2021/09/04 05:49:34;;;;;;;9.73;5.88;;;;;;;13.78;78.89;101311.03;5041112;28;20136;-83
2021/09/04 05:52:04;;;;;;;7.35;5.40;;;;;;;13.82;78.78;101315.38;5040636;28;20131;-87
2021/09/04 05:54:31;;;;;;;8.10;4.95;;;;;;;13.87;78.55;101320.56;5041547;28;20515;-85
2021/09/04 05:56:58;;;;;;;12.43;4.75;;;;;;;13.90;78.01;101313.50;5040851;28;20484;-83
2021/09/04 05:59:24;;;;;;;6.70;4.50;;;;;;;13.97;77.89;101316.09;5040446;28;20739;-84
2021/09/04 06:01:51;;;;;;;8.00;4.57;;;;;;;14.01;77.66;101310.75;5032305;28;20327;-83
2021/09/04 06:04:18;;;;;;;7.90;4.50;;;;;;;14.08;76.84;101314.19;5014513;28;20136;-89
2021/09/04 06:06:44;;;;;;;12.18;5.13;;;;;;;14.12;77.04;101307.09;5042444;28;20048;-82
2021/09/04 06:09:11;;;;;;;8.43;4.30;;;;;;;14.14;76.91;101324.63;5015805;28;20371;-83
2021/09/04 06:11:37;;;;;;;7.75;4.60;;;;;;;14.14;76.92;101324.63;5025064;28;20120;-83
2021/09/04 06:14:06;;;;;;;10.07;4.47;;;;;;;14.15;76.30;101320.25;5014256;28;20049;-85
2021/09/04 06:16:33;;;;;;;7.28;4.65;;;;;;;14.14;75.99;101329.88;5030978;28;20128;-82
2021/09/04 06:19:00;;;;;;;7.10;4.70;;;;;;;14.14;76.13;101323.75;5018525;28;20141;-85
2021/09/04 06:21:26;;;;;;;10.35;5.00;;;;;;;14.14;76.02;101327.25;5017417;28;20408;-83
2021/09/04 06:23:53;;;;;;;10.13;5.00;;;;;;;14.19;76.08;101335.09;5029979;28;20044;-86
2021/09/04 06:26:19;;;;;;;9.88;5.50;;;;;;;14.23;75.50;101324.50;5015943;28;20141;-83
2021/09/04 06:28:46;;;;;;;10.57;5.68;;;;;;;14.32;75.37;101325.28;5031630;28;20075;-87
2021/09/04 06:31:13;;;;;;;11.45;5.90;;;;;;;14.38;74.99;101327.84;5027502;28;20500;-81
2021/09/04 06:33:44;;;;;;;10.85;4.85;;;;;;;14.41;74.91;101317.25;5026252;28;20108;-88
2021/09/04 06:36:11;;;;;;;7.15;4.82;;;;;;;14.43;74.74;101325.13;5029687;28;20033;-83
2021/09/04 06:38:38;;;;;;;8.35;5.13;;;;;;;14.47;74.59;101317.16;5006771;28;20049;-84
2021/09/04 06:41:05;;;;;;;7.13;4.75;;;;;;;14.50;74.35;101318.88;4996545;28;20118;-85
2021/09/04 06:43:31;;;;;;;9.07;5.03;;;;;;;14.53;74.05;101324.09;4995737;28;20069;-86
2021/09/04 06:45:58;;;;;;;7.95;5.40;;;;;;;14.57;73.91;101328.44;5015158;28;20050;-88
2021/09/04 06:48:25;;;;;;;14.20;6.28;;;;;;;14.57;73.49;101333.69;4996280;28;20084;-84
2021/09/04 06:50:51;;;;;;;10.82;6.28;;;;;;;14.55;73.57;101336.34;5015761;28;20060;-83
2021/09/04 06:53:20;;;;;;;11.52;6.68;;;;;;;14.61;73.12;101339.78;5000236;28;20180;-81
2021/09/04 06:55:47;;;;;;;11.45;6.10;;;;;;;14.62;72.49;101337.13;5016711;28;20041;-84
2021/09/04 06:58:16;;;;;;;6.47;4.97;;;;;;;14.63;72.54;101344.16;5018015;28;20053;-82
2021/09/04 07:00:43;;;;;;;6.78;5.20;;;;;;;14.71;72.51;101344.94;5010235;28;20049;-84
2021/09/04 07:03:09;;;;;;;12.43;7.72;;;;;;;14.81;72.33;101339.50;5015726;28;20068;-87
2021/09/04 07:05:36;;;;;;;12.65;9.10;;;;;;;14.88;71.96;101339.41;4986640;28;20046;-83
2021/09/04 07:08:02;;;;;;;11.05;8.57;;;;;;;14.91;71.45;101329.72;5000607;28;20153;-86
2021/09/04 07:10:29;;;;;;;12.40;8.85;;;;;;;14.95;71.27;101334.88;4989098;28;20056;-83
2021/09/04 07:12:56;;;;;;;14.38;10.45;;;;;;;14.95;71.04;101334.88;4990461;28;20046;-85
2021/09/04 07:15:22;;;;;;;17.05;10.77;;;;;;;14.87;70.66;101340.31;5000837;28;20049;-86
2021/09/04 07:17:49;;;;;;;17.38;10.63;;;;;;;14.84;70.52;101340.34;4998374;28;20046;-83
2021/09/04 07:20:16;;;;;;;13.07;9.90;;;;;;;14.88;70.19;101347.31;4999485;28;20282;-84
2021/09/04 07:22:44;;;;;;;12.77;9.20;;;;;;;15.00;70.14;101351.50;4996081;28;20112;-85
2021/09/04 07:25:17;;;;;;;14.85;9.43;;;;;;;15.15;69.48;101347.75;4997907;28;20045;-82
2021/09/04 07:27:55;;;;;;;;;;;;;;;;;;;;;
2021/09/04 07:30:22;;;;;;;12.13;7.45;;;;;;;15.34;68.67;101348.31;4975218;28;20592;-85
2021/09/04 07:32:48;;;;;;;8.90;5.90;;;;;;;15.28;68.49;101350.19;4967421;28;20050;-84
2021/09/04 07:35:15;;;;;;;11.35;7.45;;;;;;;15.26;68.59;101350.22;4961672;28;20054;-84
2021/09/04 07:37:41;;;;;;;12.00;7.93;;;;;;;15.27;69.00;101343.19;4965738;28;20073;-86
2021/09/04 07:40:09;;;;;;;10.60;8.05;;;;;;;15.35;68.81;101342.13;4976482;28;20056;-83
2021/09/04 07:42:35;;;;;;;11.35;7.68;;;;;;;15.44;68.38;101353.44;4970279;28;20057;-86
2021/09/04 07:45:02;;;;;;;7.28;5.63;;;;;;;15.51;68.28;101355.06;4980270;28;20046;-82
2021/09/04 07:47:29;;;;;;;9.43;5.97;;;;;;;15.52;68.00;101360.28;4975054;28;20085;-85
2021/09/04 07:49:55;;;;;;;5.88;5.28;;;;;;;15.49;67.59;101355.09;4989252;28;20046;-83
2021/09/04 07:52:22;;;;;;;9.23;5.47;;;;;;;15.46;68.05;101363.06;4979163;28;20406;-89
2021/09/04 07:54:48;;;;;;;9.25;5.85;;;;;;;15.48;67.97;101366.53;4976313;28;20157;-86
2021/09/04 07:57:15;;;;;;;6.47;4.85;;;;;;;15.50;67.71;101364.75;4982577;28;20637;-86
2021/09/04 07:59:42;;;;;;;6.90;4.43;;;;;;;15.58;67.57;101351.41;4984890;28;20048;-82
2021/09/04 08:02:08;;;;;;;9.45;4.97;;;;;;;15.71;66.89;101367.91;4993781;28;20045;-82
2021/09/04 08:04:35;;;;;;;7.63;5.60;;;;;;;15.71;66.64;101359.97;4979933;28;20056;-86
2021/09/04 08:07:04;;;;;;;5.78;4.63;;;;;;;15.74;66.39;101359.91;4979716;28;20076;-81
2021/09/04 08:09:31;;;;;;;9.05;5.07;;;;;;;15.79;66.22;101367.75;4971719;28;20061;-83
2021/09/04 08:11:58;;;;;;;8.23;5.28;;;;;;;15.80;65.62;101367.72;4996356;28;20053;-83
2021/09/04 08:14:24;;;;;;;10.32;4.82;;;;;;;15.81;65.82;101369.50;4984253;28;20137;-82
2021/09/04 08:16:51;;;;;;;6.88;5.28;;;;;;;15.92;65.71;101377.19;4982812;28;22979;-81
2021/09/04 08:19:18;;;;;;;8.02;5.03;;;;;;;16.04;65.43;101374.28;4968452;28;20081;-84
2021/09/04 08:21:44;;;;;;;7.40;5.38;;;;;;;16.09;65.28;101376.84;4955229;28;20042;-83
2021/09/04 08:24:11;;;;;;;6.32;5.40;;;;;;;15.91;65.37;101379.88;4985357;28;20046;-82
2021/09/04 08:26:44;;;;;;;10.30;6.03;;;;;;;15.81;65.95;101380.06;4984571;28;20054;-83
2021/09/04 08:29:11;;;;;;;10.15;5.63;;;;;;;15.82;66.06;101379.13;4992605;28;20057;-88
2021/09/04 08:31:38;;;;;;;14.85;6.78;;;;;;;15.86;65.85;101386.09;5017520;28;22019;-81
2021/09/04 08:34:04;;;;;;;6.28;4.70;;;;;;;15.81;66.05;101382.69;5019835;28;20085;-81
2021/09/04 08:36:31;;;;;;;10.32;5.32;;;;;;;15.82;65.96;101379.13;5006181;28;20559;-81
2021/09/04 08:38:58;;;;;;;8.70;5.90;;;;;;;15.86;65.68;101383.44;5024103;28;20068;-80
2021/09/04 08:41:24;;;;;;;8.80;4.90;;;;;;;15.84;65.68;101379.13;5012748;28;20049;-82
2021/09/04 08:43:51;;;;;;;9.05;5.28;;;;;;;16.00;65.33;101382.31;5028186;28;20056;-86
2021/09/04 08:46:18;;;;;;;9.77;7.00;;;;;;;16.20;64.82;101381.91;5003122;28;20064;-87
2021/09/04 08:48:46;;;;;;;8.65;5.20;;;;;;;16.36;63.98;101391.25;4995959;28;20504;-82
2021/09/04 08:51:15;;;;;;;11.18;4.75;;;;;;;16.52;63.60;101390.94;4994386;28;20049;-82
2021/09/04 08:53:42;;;;;;;7.55;4.63;;;;;;;16.73;63.04;101386.06;4996779;28;21256;-82
2021/09/04 08:56:10;;;;;;;10.57;5.18;;;;;;;16.91;62.28;101384.78;5013868;28;20064;-82
2021/09/04 08:58:38;;;;;;;7.90;5.32;;;;;;;17.01;62.11;101386.31;5011776;28;20055;-86
2021/09/04 09:01:21;;;;;;;9.60;4.75;;;;;;;17.09;61.55;101383.47;4994279;28;20065;-84
2021/09/04 09:03:52;;;;;;;5.70;3.73;;;;;;;17.22;61.11;101384.91;4999595;28;20049;-87
2021/09/04 09:06:32;;;;;;;9.48;5.10;;;;;;;17.41;59.85;101380.03;5004276;28;20041;-84
2021/09/04 09:08:59;;;;;;;8.15;5.00;;;;;;;17.62;59.76;101375.94;4996106;28;20123;-82
2021/09/04 09:11:25;;;;;;;5.47;4.00;;;;;;;17.85;59.44;101374.47;5008993;28;20151;-81
2021/09/04 09:13:56;;;;;;;9.45;4.18;;;;;;;18.10;58.48;101376.44;4997017;28;20041;-82
2021/09/04 09:16:25;;;;;;;6.63;4.88;;;;;;;18.30;57.72;101375.84;4994540;28;20115;-83
2021/09/04 09:19:05;;;;;;;6.63;4.55;;;;;;;18.44;56.84;101384.25;5010990;28;20825;-85
2021/09/04 09:21:41;;;;;;;11.45;4.70;;;;;;;18.82;56.12;101373.38;4999232;28;20037;-86
2021/09/04 09:24:18;;;;;;;6.07;4.78;;;;;;;19.26;54.97;101381.69;5011807;28;20053;-83
2021/09/04 09:27:01;;;;;;;5.50;3.75;;;;;;;19.44;53.77;101382.00;5007356;28;20041;-83
2021/09/04 09:29:34;;;;;;;8.07;4.05;;;;;;;19.59;53.87;101383.25;4992515;28;20054;-81
2021/09/04 09:32:13;;;;;;;5.50;3.90;;;;;;;19.54;53.14;101374.56;5018832;28;20141;-81
2021/09/04 09:34:43;;;;;;;5.43;4.18;;;;;;;19.49;53.41;101378.25;5005137;28;20920;-81
2021/09/04 09:37:14;;;;;;;11.52;4.50;;;;;;;19.47;53.78;101371.25;4992897;28;20056;-83
2021/09/04 09:39:44;;;;;;;5.70;3.55;;;;;;;19.48;53.04;101370.34;4992097;28;20046;-82
2021/09/04 09:42:15;;;;;;;6.05;4.82;;;;;;;19.46;53.07;101372.19;4986017;28;20045;-84
2021/09/04 09:44:43;;;;;;;7.88;4.60;;;;;;;19.59;52.83;101367.31;5008603;28;20041;-82
2021/09/04 09:47:13;;;;;;;7.28;4.00;;;;;;;19.93;51.84;101369.66;5004686;28;20042;-83
2021/09/04 09:49:45;;;;;;;9.02;4.55;;;;;;;20.24;51.35;101372.94;5003918;28;20049;-84
2021/09/04 09:52:27;;;;;;;5.40;4.85;;;;;;;20.48;49.81;101371.13;4993917;28;20437;-80
2021/09/04 09:55:00;;;;;;;7.13;4.72;;;;;;;20.62;50.31;101367.94;5004463;28;20408;-83
2021/09/04 09:57:27;;;;;;;7.25;3.90;;;;;;;20.75;49.75;101357.69;5008163;28;20144;-84
2021/09/04 09:59:56;;;;;;;4.88;4.15;;;;;;;20.67;49.22;101363.28;5009885;28;20070;-87
2021/09/04 10:02:24;;;;;;;5.85;4.53;;;;;;;20.62;49.20;101367.94;5002058;28;20404;-82
2021/09/04 10:04:52;;;;;;;10.38;4.28;;;;;;;21.40;47.75;101363.84;5013147;28;20060;-82
2021/09/04 10:07:19;;;;;;;7.07;3.83;;;;;;;23.43;44.24;101354.41;4990212;28;20137;-85
2021/09/04 10:09:48;;;;;;;4.35;3.88;;;;;;;25.51;39.67;101352.63;4991388;28;20483;-87
2021/09/04 10:12:16;;;;;;;7.47;4.28;;;;;;;27.39;36.01;101353.13;4990721;28;20049;-84
2021/09/04 10:14:46;;;;;;;7.30;3.80;;;;;;;27.62;34.99;101357.88;5009182;28;20054;-86
2021/09/04 10:17:14;;;;;;;5.22;3.45;;;;;;;27.31;35.33;101354.56;5007573;28;20132;-85
2021/09/04 10:19:41;;;;;;;6.32;3.58;;;;;;;27.43;35.37;101353.78;4995486;28;20057;-83
2021/09/04 10:22:10;;;;;;;6.50;3.78;;;;;;;27.57;35.53;101358.19;4987617;28;20124;-85
2021/09/04 10:24:43;;;;;;;6.18;4.13;;;;;;;26.90;35.68;101356.44;5007686;28;20057;-85
2021/09/04 10:27:28;;;;;;;7.22;3.95;;;;;;;27.44;35.23;101354.63;5010001;28;20112;-82
2021/09/04 10:29:54;;;;;;;4.68;3.08;;;;;;;28.94;33.34;101349.25;4998828;28;20497;-83
2021/09/04 10:32:21;;;;;;;7.05;3.72;;;;;;;29.43;31.51;101344.66;4997433;28;20045;-82
2021/09/04 10:34:52;;;;;;;3.67;2.75;;;;;;;29.47;30.87;101346.97;5004099;28;20054;-82
2021/09/04 10:37:20;;;;;;;3.45;3.03;;;;;;;29.24;31.30;101346.03;4999412;28;20087;-81
2021/09/04 10:39:59;;;;;;;5.20;3.78;;;;;;;29.86;30.00;101357.44;4998284;28;20050;-86
2021/09/04 10:42:28;;;;;;;6.55;2.60;;;;;;;29.84;30.48;101354.00;5014948;28;20050;-81
2021/09/04 10:45:15;;;;;;;3.80;3.10;;;;;;;28.95;31.31;101353.69;5006714;28;20033;-82
2021/09/04 10:47:51;;;;;;;6.32;3.95;;;;;;;28.42;31.39;101348.59;5000047;28;20060;-85
2021/09/04 10:50:23;;;;;;;4.10;3.40;;;;;;;27.02;34.17;101354.75;5003209;28;20050;-83
2021/09/04 10:53:05;;;;;;;4.03;3.13;;;;;;;25.60;35.92;101353.88;4997319;28;20579;-84
2021/09/04 10:55:43;;;;;;;4.80;3.65;;;;;;;24.79;37.86;101340.84;5014994;28;20077;-86
2021/09/04 10:58:16;;;;;;;4.78;4.18;;;;;;;25.53;36.96;101344.53;5000925;28;20056;-87
2021/09/04 11:00:46;;;;;;;5.22;3.35;;;;;;;25.50;36.26;101334.84;5009085;28;20045;-87
2021/09/04 11:03:28;;;;;;;3.85;3.30;;;;;;;25.57;36.09;101341.53;4998785;28;20069;-84
2021/09/04 11:06:02;;;;;;;4.60;3.20;;;;;;;27.06;34.44;101332.94;5013140;28;21435;-83
2021/09/04 11:08:38;;;;;;;6.00;3.17;;;;;;;28.73;31.18;101324.81;5026036;28;20052;-84
2021/09/04 11:11:16;;;;;;;4.10;3.58;;;;;;;28.63;31.28;101327.28;5011384;28;20523;-85
2021/09/04 11:13:49;;;;;;;6.95;3.60;;;;;;;29.17;30.92;101328.63;5014793;28;20053;-85
2021/09/04 11:16:31;;;;;;;4.82;3.65;;;;;;;29.96;29.66;101327.91;5017120;28;20056;-86
2021/09/04 11:19:40;;;;;;;5.80;2.90;;;;;;;28.88;31.31;101331.72;5010228;28;20041;-83
2021/09/04 11:22:15;;;;;;;4.03;3.08;;;;;;;27.93;32.49;101320.72;4998832;28;20054;-85
2021/09/04 11:24:47;;;;;;;3.10;2.90;;;;;;;27.54;33.55;101320.75;5001710;28;21034;-83
2021/09/04 11:27:20;;;;;;;4.43;3.28;;;;;;;27.85;32.63;101323.97;5000900;28;20100;-86